Monday, November 20, 2017, 1:51 AM GMT
Back to Local

CYZX, Greenwood, N. S.

Location: , , Canada Lat: 44.983
Local Time: 1:51 AM GMT ( 1:51 GMT) Lon: -64.917
Time Zone: GMT Elev: 91 ft

Show me the last for .
Show Coded

Time T Td Feel RH Dir Speed Gust Alt SLP Vis Weather Sky Remarks
2017-11-20 01:00 55 48 - 76 220° 17 24 29.15 29.15 15 FEW020 BKN050 None
2017-11-20 00:00 57 50 - 76 210° 18 33 29.14 29.14 15 SCT040 None
2017-11-19 23:00 59 54 - 82 200° 15 - 29.13 29.13 15 FEW020 SCT030 None
2017-11-19 22:00 59 54 - 82 200° 18 29 29.14 29.14 15 FEW030 SCT090 None
2017-11-19 21:41 61 55 - 82 210° 22 30 29.14 29.14 15 FEW030 SCT090 None
2017-11-19 21:00 61 57 - 87 220° 18 25 29.14 29.14 10 -RA BKN030 OVC090 None
2017-11-19 20:00 63 57 - 82 190° 21 26 29.15 29.15 8 -RA OVC030 None
2017-11-19 19:00 63 57 - 82 190° 24 37 29.18 29.18 8 -RA FEW020 OVC028 Pressure falling rapidly
2017-11-19 18:10 63 57 - 82 190° 22 33 29.22 29.22 6 -RA BR FEW020 OVC028 Pressure falling rapidly
2017-11-19 18:00 63 57 - 82 180° 20 29 29.23 29.23 12 OVC028 None
2017-11-19 17:00 61 57 - 87 190° 16 25 29.28 29.28 12 OVC026 None
2017-11-19 16:00 61 57 - 87 180° 17 24 29.32 29.33 10 -RA SCT020 OVC040 None
2017-11-19 15:00 57 55 - 93 180° 17 24 29.37 29.38 10 -RA SCT020 OVC040 None
2017-11-19 14:00 54 52 - 93 160° 18 28 29.41 29.41 10 -RA FEW009 SCT025 OVC040 None
2017-11-19 13:38 54 50 - 87 150° 15 24 29.43 29.43 4 -RA FEW009 SCT025 OVC040 None
2017-11-19 13:00 52 48 - 87 150° 17 24 29.46 29.46 8 -SHRA FEW009 BKN025 OVC060 None
2017-11-19 12:00 48 46 40 93 150° 17 24 29.50 29.50 8 -SHRA FEW009 BKN025 OVC080 None
2017-11-19 11:00 45 43 42 93 70° 5 - 29.54 29.54 6 -SHRA BR SCT009 OVC025 None
2017-11-19 10:30 43 41 39 93 30° 7 - 29.55 29.55 6 -SHRA BR SCT009 OVC030 None
2017-11-19 10:00 41 39 34 93 60° 12 - 29.56 29.57 8 -SHRA FEW012 OVC040 Pressure falling rapidly
2017-11-19 09:00 39 37 35 93 50° 6 - 29.63 29.63 12 -SHRA OVC045 None
2017-11-19 08:00 36 34 30 93 60° 7 - 29.67 29.67 15 -SHRA OVC060 None
2017-11-19 07:00 36 32 31 86 80° 6 - 29.71 29.72 15 FEW030 OVC080 None
2017-11-19 06:00 36 30 32 80 50° 5 - 29.74 29.74 15 BKN090 None
2017-11-19 05:00 36 30 33 80 30° 3 - 29.75 29.75 15 BKN110 None
2017-11-19 04:00 34 30 - 86 - Calm - 29.79 29.79 15 BKN120 None
2017-11-19 03:00 34 32 - 93 110° 2 - 29.79 29.80 15 OVC120 None
2017-11-19 02:00 36 30 32 80 190° 5 - 29.79 29.80 15 OVC130 None

Support USWX by starting your Amazon purchase here.